Allentown, Arizona
Current Conditions -  °F | °C
As of 12:53 PM on Thursday 30 Oct 2014 (Local Time) from KRQE Reporting Station
Clear Clear  
Wind Chill: 21°   Ceiling: Unl
Heat Index: 21°   Visibility: 10mi
Dew Point: -10°   Wind: 5mph
Humidity: 12%   Direction: NA
Pressure: 30.35"   Gusts: NA
Location:  35.2918°N, 109.157°W
Report Text: KRQE 301853Z AUTO VRB04KT 10SM CLR 21/M10 A3035 RMK AO2 SLP208 T02111100 TSNO
Loading
Personal Weather Stations






























Interactive Weather Map
Tropical Storm Tracking
New forecast layout! Learn more

10-Day Weather Forecast

Advertisements
Track Severe Weather on mobile